KSEP/SEP METAR and TAF weather

Enter ICAO airport designator
Station Type Date Time Source
KSEP METAR 2019/04/21 22:15 UTC NOAA

KSEP 212215Z AUTO 16012G21KT 10SM CLR 28/16 A2991 RMK AO2 T02750155


Station Type Date Time Source
KSEP Decoded METAR 2019/04/21 22:15 UTC NOAA

Stephenville, Clark Field Municipal Airport, TX, United States (KSEP) 32-13N 098-11W 402M
Apr 21, 2019 - 06:15 PM EDT / 2019.04.21 2215 UTC
Wind: from the SSE (160 degrees) at 14 MPH (12 KT) gusting to 24 MPH (21 KT):0
Visibility: 10 mile(s):0
Sky conditions: clear
Temperature: 81.5 F (27.5 C)
Dew Point: 59.9 F (15.5 C)
Relative Humidity: 47%
Pressure (altimeter): 29.91 in. Hg (1012 hPa)
ob: KSEP 212215Z AUTO 16012G21KT 10SM CLR 28/16 A2991 RMK AO2 T02750155
cycle: 22

Station Type Date Time Source
KSEP TAF UTC NOAA

Error!

Example: see airport list